Time;durP1;ratioP1;P1;durP2;ratioP2;P2;SDS_P1;SDS_P2;PMS_P1;PMS_P2;Temp;Humidity;BMP_temperature;BMP_pressure;BME280_temperature;BME280_humidity;BME280_pressure;Samples;Min_cycle;Max_cycle;Signal;HPM_P1;HPM_P2
2023/08/24 00:01:32;;;;;;;5.93;3.30;;;16.80;99.90;;;;;;5092173;28;20491;-69
2023/08/24 00:03:58;;;;;;;7.65;3.83;;;16.90;99.90;;;;;;5092637;28;20089;-69
2023/08/24 00:06:23;;;;;;;6.30;3.97;;;16.80;99.90;;;;;;5092287;28;20511;-69
2023/08/24 00:08:49;;;;;;;5.00;4.05;;;16.70;99.90;;;;;;5092159;28;20040;-69
2023/08/24 00:11:14;;;;;;;7.38;4.57;;;16.90;99.90;;;;;;5092484;28;20446;-69
2023/08/24 00:13:49;;;;;;;10.20;6.40;;;16.80;99.90;;;;;;5092238;28;20442;-69
2023/08/24 00:16:19;;;;;;;8.98;6.47;;;16.80;99.90;;;;;;5091342;28;20035;-69
2023/08/24 00:18:45;;;;;;;8.98;5.38;;;16.50;99.90;;;;;;5090684;28;20119;-69
2023/08/24 00:21:13;;;;;;;5.55;4.30;;;16.50;99.90;;;;;;5074002;28;20475;-69
2023/08/24 00:23:38;;;;;;;4.55;3.60;;;16.70;99.90;;;;;;5092192;28;20460;-69
2023/08/24 00:26:04;;;;;;;4.88;3.17;;;16.50;99.90;;;;;;5092086;28;20044;-69
2023/08/24 00:28:30;;;;;;;2.83;2.03;;;16.50;99.90;;;;;;5091730;28;20150;-69
2023/08/24 00:30:55;;;;;;;1.33;1.20;;;16.70;99.90;;;;;;5090854;28;20071;-69
2023/08/24 00:33:21;;;;;;;1.90;1.17;;;16.50;99.90;;;;;;5091088;28;20040;-69
2023/08/24 00:35:46;;;;;;;1.70;1.30;;;16.50;99.90;;;;;;5092002;28;20527;-69
2023/08/24 00:38:12;;;;;;;3.33;2.20;;;16.40;99.90;;;;;;5090416;28;20491;-69
2023/08/24 00:40:38;;;;;;;5.35;3.30;;;16.50;99.90;;;;;;5090678;28;20043;-69
2023/08/24 00:43:04;;;;;;;5.55;3.53;;;16.50;99.90;;;;;;5092156;28;20087;-69
2023/08/24 00:45:31;;;;;;;6.97;4.32;;;16.30;99.90;;;;;;5090583;28;20105;-69
2023/08/24 00:47:56;;;;;;;5.43;3.55;;;16.40;99.90;;;;;;5091793;28;20043;-69
2023/08/24 00:50:22;;;;;;;6.38;3.58;;;16.40;99.90;;;;;;5091643;28;20036;-69
2023/08/24 00:52:49;;;;;;;5.63;3.90;;;16.30;99.90;;;;;;5090816;28;20067;-69
2023/08/24 00:55:16;;;;;;;7.72;4.45;;;16.40;99.90;;;;;;5090549;28;20058;-69
2023/08/24 00:57:42;;;;;;;6.55;4.15;;;16.20;99.90;;;;;;5090526;28;20449;-69
2023/08/24 01:00:10;;;;;;;10.15;5.32;;;16.30;99.90;;;;;;5091698;28;20032;-69
2023/08/24 01:02:36;;;;;;;7.40;5.25;;;16.50;99.90;;;;;;5090710;28;20047;-69
2023/08/24 01:05:04;;;;;;;7.43;4.78;;;16.30;99.90;;;;;;5091650;28;20123;-69
2023/08/24 01:07:30;;;;;;;5.97;4.53;;;16.20;99.90;;;;;;5091557;28;20449;-69
2023/08/24 01:09:55;;;;;;;8.73;5.70;;;16.20;99.90;;;;;;5091327;28;20032;-69
2023/08/24 01:12:42;;;;;;;7.82;5.53;;;16.50;99.90;;;;;;5091802;28;20036;-69
2023/08/24 01:15:20;;;;;;;7.88;6.57;;;16.30;99.90;;;;;;5095599;28;20543;-69
2023/08/24 01:17:47;;;;;;;8.38;6.18;;;16.60;99.90;;;;;;5095552;28;20492;-69
2023/08/24 01:20:15;;;;;;;9.43;6.80;;;16.40;99.90;;;;;;5095280;28;20619;-69
2023/08/24 01:23:12;;;;;;;9.05;6.63;;;16.10;99.90;;;;;;5095878;28;20046;-69
2023/08/24 01:25:45;;;;;;;10.50;6.82;;;16.60;99.90;;;;;;5095618;28;20044;-69
2023/08/24 01:28:14;;;;;;;9.48;6.00;;;16.30;99.90;;;;;;5095302;28;20048;-69
2023/08/24 01:30:39;;;;;;;8.15;5.75;;;16.60;99.90;;;;;;5095470;28;20477;-69
2023/08/24 01:33:05;;;;;;;10.02;5.80;;;16.30;99.90;;;;;;5095338;28;20044;-69
2023/08/24 01:35:32;;;;;;;7.95;5.60;;;16.50;99.90;;;;;;5095501;28;20075;-69
2023/08/24 01:38:02;;;;;;;10.20;6.80;;;16.30;99.90;;;;;;5095122;28;20047;-69
2023/08/24 01:40:32;;;;;;;10.18;6.20;;;16.30;99.90;;;;;;5095353;28;20044;-69
2023/08/24 01:43:02;;;;;;;10.63;5.80;;;16.60;99.90;;;;;;5094151;28;20119;-69
2023/08/24 01:45:31;;;;;;;6.95;5.32;;;16.60;99.90;;;;;;5093914;28;20056;-69
2023/08/24 01:47:58;;;;;;;7.13;5.15;;;16.60;99.90;;;;;;5093601;28;20499;-69
2023/08/24 01:50:24;;;;;;;8.73;5.68;;;16.50;99.90;;;;;;5094900;28;20040;-69
2023/08/24 01:52:50;;;;;;;9.82;6.10;;;16.70;99.90;;;;;;5093775;28;20166;-69
2023/08/24 01:55:19;;;;;;;9.95;5.18;;;16.80;99.90;;;;;;5093758;28;20069;-69
2023/08/24 01:57:45;;;;;;;9.43;5.88;;;16.70;99.90;;;;;;5094861;28;20108;-69
2023/08/24 02:00:11;;;;;;;8.73;6.78;;;16.70;99.90;;;;;;5093434;28;20708;-69
2023/08/24 02:02:37;;;;;;;8.13;5.25;;;16.50;99.90;;;;;;5094958;28;20059;-69
2023/08/24 02:05:03;;;;;;;8.73;5.53;;;16.60;99.90;;;;;;5094890;28;20036;-69
2023/08/24 02:07:29;;;;;;;7.60;5.20;;;16.50;99.90;;;;;;5094732;28;20063;-69
2023/08/24 02:09:55;;;;;;;9.40;5.60;;;16.80;99.90;;;;;;5093438;28;20055;-69
2023/08/24 02:12:20;;;;;;;7.63;5.45;;;16.50;99.90;;;;;;5094645;28;20047;-69
2023/08/24 02:14:46;;;;;;;6.75;4.88;;;16.70;99.90;;;;;;5094865;28;20036;-69
2023/08/24 02:17:12;;;;;;;6.97;4.97;;;16.60;99.90;;;;;;5094616;28;20071;-69
2023/08/24 02:19:38;;;;;;;8.10;4.68;;;16.60;99.90;;;;;;5092973;28;20372;-69
2023/08/24 02:22:03;;;;;;;8.82;5.22;;;16.50;99.90;;;;;;5093214;28;20044;-69
2023/08/24 02:24:29;;;;;;;11.85;4.53;;;16.30;99.90;;;;;;5094264;28;20067;-69
2023/08/24 02:26:54;;;;;;;5.20;4.53;;;16.40;99.90;;;;;;5094155;28;20040;-69
2023/08/24 02:29:20;;;;;;;7.35;4.40;;;16.30;99.90;;;;;;5093074;28;20373;-69
2023/08/24 02:31:45;;;;;;;7.03;5.00;;;16.10;99.90;;;;;;5094368;28;20503;-69
2023/08/24 02:34:11;;;;;;;6.38;3.88;;;16.10;99.90;;;;;;5094354;28;20040;-69
2023/08/24 02:36:37;;;;;;;9.23;4.88;;;16.20;99.90;;;;;;5094282;28;20039;-69
2023/08/24 02:39:02;;;;;;;8.32;4.07;;;16.00;99.90;;;;;;5093877;28;20039;-69
2023/08/24 02:41:28;;;;;;;5.20;4.10;;;16.30;99.90;;;;;;5094075;28;20410;-69
2023/08/24 02:43:53;;;;;;;10.80;4.13;;;16.20;99.90;;;;;;5093958;28;20039;-69
2023/08/24 02:46:21;;;;;;;7.80;4.38;;;16.50;99.90;;;;;;5093814;28;20043;-69
2023/08/24 02:48:46;;;;;;;7.78;4.47;;;16.50;99.90;;;;;;5092488;28;20399;-69
2023/08/24 02:51:13;;;;;;;11.15;4.13;;;16.50;99.90;;;;;;5094078;28;20035;-69
2023/08/24 02:53:39;;;;;;;7.25;4.20;;;16.50;99.90;;;;;;5093933;28;20036;-69
2023/08/24 02:56:05;;;;;;;9.18;5.07;;;16.60;99.90;;;;;;5093766;28;20089;-69
2023/08/24 02:58:31;;;;;;;7.03;4.82;;;16.50;99.90;;;;;;5093774;28;20052;-69
2023/08/24 03:00:57;;;;;;;7.20;4.80;;;16.40;99.90;;;;;;5094017;28;20032;-69
2023/08/24 03:03:24;;;;;;;6.00;4.90;;;16.50;99.90;;;;;;5093851;28;20085;-69
2023/08/24 03:06:00;;;;;;;7.75;4.75;;;16.20;99.90;;;;;;5092458;28;20036;-69
2023/08/24 03:08:26;;;;;;;9.68;5.13;;;16.30;99.90;;;;;;5092049;28;20126;-69
2023/08/24 03:10:51;;;;;;;8.63;4.90;;;16.50;99.90;;;;;;5093510;28;20044;-69
2023/08/24 03:13:17;;;;;;;10.05;5.82;;;16.50;99.90;;;;;;5093792;28;20039;-69
2023/08/24 03:15:43;;;;;;;8.35;5.43;;;16.40;99.90;;;;;;5093488;28;20070;-69
2023/08/24 03:18:12;;;;;;;9.50;5.75;;;16.10;99.90;;;;;;5091977;28;20495;-69
2023/08/24 03:20:38;;;;;;;7.45;5.50;;;16.10;99.90;;;;;;5092274;28;20123;-69
2023/08/24 03:23:04;;;;;;;9.85;6.13;;;16.20;99.90;;;;;;5093355;28;20116;-69
2023/08/24 03:25:31;;;;;;;9.80;6.18;;;16.40;99.90;;;;;;5093116;28;20102;-69
2023/08/24 03:27:57;;;;;;;8.50;5.75;;;16.30;99.90;;;;;;5093179;28;20036;-69
2023/08/24 03:30:22;;;;;;;8.52;5.45;;;16.30;99.90;;;;;;5092951;28;20051;-69
2023/08/24 03:32:48;;;;;;;9.95;6.80;;;16.00;99.90;;;;;;5093191;28;20039;-69
2023/08/24 03:35:14;;;;;;;10.80;6.15;;;16.30;99.90;;;;;;5093061;28;20469;-69
2023/08/24 03:37:40;;;;;;;10.02;5.85;;;16.10;99.90;;;;;;5092274;28;20119;-69
2023/08/24 03:40:06;;;;;;;10.20;6.40;;;16.30;99.90;;;;;;5092577;28;20159;-69
2023/08/24 03:42:32;;;;;;;10.02;6.65;;;16.30;99.90;;;;;;5093130;28;20082;-69
2023/08/24 03:44:59;;;;;;;13.63;6.32;;;16.20;99.90;;;;;;5092986;28;20048;-69
2023/08/24 03:47:25;;;;;;;8.82;5.78;;;16.00;99.90;;;;;;5092902;28;20118;-69
2023/08/24 03:49:50;;;;;;;7.60;6.38;;;16.20;99.90;;;;;;5092445;28;20790;-69
2023/08/24 03:52:16;;;;;;;10.38;6.55;;;16.00;99.90;;;;;;5092783;28;20124;-69
2023/08/24 03:54:42;;;;;;;8.65;6.90;;;16.00;99.90;;;;;;5092547;28;20123;-69
2023/08/24 03:57:07;;;;;;;11.13;6.57;;;16.30;99.90;;;;;;5092781;28;20080;-69
2023/08/24 03:59:33;;;;;;;8.35;5.80;;;16.20;99.90;;;;;;5092320;28;20074;-69
2023/08/24 04:02:02;;;;;;;9.35;5.70;;;16.20;99.90;;;;;;5092678;28;20035;-69
2023/08/24 04:04:27;;;;;;;9.90;6.53;;;16.10;99.90;;;;;;5092641;28;20047;-69
2023/08/24 04:06:53;;;;;;;10.63;8.07;;;16.40;99.90;;;;;;5092279;28;20044;-69
2023/08/24 04:09:19;;;;;;;10.20;7.80;;;16.30;99.90;;;;;;5092158;28;20147;-69
2023/08/24 04:11:45;;;;;;;11.30;6.32;;;16.20;99.90;;;;;;5092416;28;20123;-69
2023/08/24 04:14:10;;;;;;;11.57;6.95;;;16.20;99.90;;;;;;5092486;28;20032;-69
2023/08/24 04:16:36;;;;;;;10.07;7.28;;;16.00;99.90;;;;;;5092431;28;20507;-69
2023/08/24 04:19:01;;;;;;;13.23;7.75;;;16.30;99.90;;;;;;5092044;28;20039;-69
2023/08/24 04:21:27;;;;;;;13.25;7.95;;;16.00;99.90;;;;;;5092148;28;20036;-69
2023/08/24 04:23:53;;;;;;;11.40;8.05;;;16.00;99.90;;;;;;5091178;28;20094;-69
2023/08/24 04:26:18;;;;;;;13.07;8.60;;;16.10;99.90;;;;;;5092093;28;20511;-69
2023/08/24 04:28:44;;;;;;;14.40;8.05;;;16.00;99.90;;;;;;5091643;28;20040;-69
2023/08/24 04:31:10;;;;;;;13.07;8.00;;;16.30;99.90;;;;;;5092055;28;20036;-69
2023/08/24 04:33:35;;;;;;;15.60;8.57;;;16.20;99.90;;;;;;5090557;28;20044;-69
2023/08/24 04:36:03;;;;;;;14.57;9.38;;;16.00;99.90;;;;;;5091786;28;20036;-69
2023/08/24 04:38:29;;;;;;;10.27;8.43;;;16.30;99.90;;;;;;5090534;28;20047;-70
2023/08/24 04:40:55;;;;;;;15.60;8.27;;;16.00;99.90;;;;;;5074039;28;20101;-70
2023/08/24 04:43:23;;;;;;;10.68;8.70;;;15.90;99.90;;;;;;5091946;28;20044;-69
2023/08/24 04:45:54;;;;;;;12.07;8.13;;;16.00;99.90;;;;;;5091982;28;20051;-69
2023/08/24 04:48:24;;;;;;;11.75;8.15;;;16.00;99.90;;;;;;5091515;28;20032;-69
2023/08/24 04:50:50;;;;;;;14.13;7.97;;;16.40;99.90;;;;;;5069674;22;20129;-72
2023/08/24 04:53:18;;;;;;;13.23;8.95;;;16.10;99.90;;;;;;5031471;28;20038;-72
2023/08/24 04:55:44;;;;;;;16.30;9.23;;;16.20;99.90;;;;;;5014260;28;20420;-72
2023/08/24 04:58:11;;;;;;;13.98;8.68;;;16.10;99.90;;;;;;5013678;28;20052;-72
2023/08/24 05:00:39;;;;;;;14.32;8.77;;;16.20;99.90;;;;;;5031681;28;20044;-71
2023/08/24 05:03:06;;;;;;;20.75;9.98;;;16.10;99.90;;;;;;5031654;28;20045;-72
2023/08/24 05:05:32;;;;;;;15.35;10.77;;;16.30;99.90;;;;;;5031445;28;20041;-72
2023/08/24 05:07:59;;;;;;;17.70;10.80;;;16.20;99.90;;;;;;5031223;28;20098;-72
2023/08/24 05:10:25;;;;;;;19.10;11.23;;;16.60;99.90;;;;;;5031669;28;20037;-71
2023/08/24 05:12:51;;;;;;;16.50;9.93;;;16.70;99.90;;;;;;5031596;28;20041;-72
2023/08/24 05:15:17;;;;;;;22.90;10.98;;;16.80;99.90;;;;;;5031347;28;20062;-72
2023/08/24 05:17:43;;;;;;;15.80;10.35;;;16.60;99.90;;;;;;5031448;28;20047;-72
2023/08/24 05:20:10;;;;;;;27.88;11.15;;;16.70;99.90;;;;;;5031099;28;20115;-72
2023/08/24 05:22:36;;;;;;;18.52;10.43;;;17.00;99.90;;;;;;5031244;28;20041;-72
2023/08/24 05:25:02;;;;;;;16.38;9.98;;;16.60;99.90;;;;;;5031321;28;20569;-72
2023/08/24 05:27:28;;;;;;;17.38;9.73;;;17.10;99.90;;;;;;5031333;28;20111;-71
2023/08/24 05:29:54;;;;;;;13.85;9.30;;;16.90;99.90;;;;;;5031239;28;20041;-72
2023/08/24 05:32:22;;;;;;;15.75;9.02;;;17.10;99.90;;;;;;5031381;28;20038;-72
2023/08/24 05:34:48;;;;;;;13.23;8.55;;;17.40;99.90;;;;;;5031185;28;20060;-72
2023/08/24 05:37:14;;;;;;;16.92;8.15;;;17.10;99.90;;;;;;5031393;28;20041;-71
2023/08/24 05:39:39;;;;;;;11.80;8.10;;;17.00;99.90;;;;;;5031157;28;20037;-71
2023/08/24 05:42:05;;;;;;;13.18;8.57;;;17.20;99.90;;;;;;5031017;28;20493;-70
2023/08/24 05:44:31;;;;;;;14.85;9.52;;;17.10;99.90;;;;;;5031207;28;20038;-71
2023/08/24 05:46:57;;;;;;;14.48;9.65;;;16.90;99.90;;;;;;5030974;28;20503;-71
2023/08/24 05:49:22;;;;;;;18.27;10.55;;;16.70;99.90;;;;;;5030765;28;20034;-70
2023/08/24 05:51:52;;;;;;;14.75;10.65;;;17.00;99.90;;;;;;5031067;28;20121;-71
2023/08/24 05:54:18;;;;;;;17.23;11.10;;;17.20;99.90;;;;;;5031188;28;20132;-71
2023/08/24 05:56:47;;;;;;;18.25;9.85;;;17.30;99.90;;;;;;5031047;28;20038;-71
2023/08/24 05:59:14;;;;;;;18.25;11.32;;;17.30;99.90;;;;;;5031267;28;20041;-71
2023/08/24 06:01:41;;;;;;;17.50;11.48;;;17.00;99.90;;;;;;5034683;28;20049;-70
2023/08/24 06:04:07;;;;;;;16.35;11.88;;;17.20;99.90;;;;;;5034601;28;20068;-71
2023/08/24 06:06:33;;;;;;;17.08;11.70;;;17.80;99.90;;;;;;5034755;28;20045;-71
2023/08/24 06:08:59;;;;;;;16.38;11.73;;;17.90;99.90;;;;;;5034180;28;20540;-70
2023/08/24 06:11:25;;;;;;;20.30;11.70;;;18.20;99.90;;;;;;5034615;28;20120;-70
2023/08/24 06:13:53;;;;;;;15.23;11.30;;;18.40;99.90;;;;;;5034567;28;20034;-71
2023/08/24 06:16:19;;;;;;;18.42;11.88;;;18.60;99.90;;;;;;5034493;28;20053;-71
2023/08/24 06:18:44;;;;;;;18.70;11.30;;;19.00;99.90;;;;;;5034076;28;20120;-70
2023/08/24 06:21:10;;;;;;;17.42;10.85;;;18.90;99.90;;;;;;5034401;28;20041;-71
2023/08/24 06:23:36;;;;;;;16.75;10.18;;;19.30;99.90;;;;;;5034508;28;20107;-71
2023/08/24 06:26:01;;;;;;;12.80;10.35;;;19.50;99.90;;;;;;5034190;28;20129;-71
2023/08/24 06:28:27;;;;;;;13.48;9.73;;;19.70;99.90;;;;;;5034050;28;20044;-71
2023/08/24 06:30:55;;;;;;;11.25;9.05;;;19.90;99.90;;;;;;5034215;28;20033;-70
2023/08/24 06:33:20;;;;;;;12.45;8.38;;;19.90;99.90;;;;;;5034052;28;20404;-71
2023/08/24 06:35:46;;;;;;;12.23;7.22;;;19.80;99.90;;;;;;5034243;28;20041;-71
2023/08/24 06:38:13;;;;;;;10.70;7.43;;;20.40;99.90;;;;;;5033993;28;20106;-71
2023/08/24 06:40:39;;;;;;;11.23;7.30;;;20.20;99.90;;;;;;5015256;28;20045;-71
2023/08/24 06:43:05;;;;;;;10.98;6.75;;;20.70;99.90;;;;;;5033864;28;20041;-70
2023/08/24 06:45:31;;;;;;;9.13;6.47;;;21.00;99.90;;;;;;5033737;28;20091;-71
2023/08/24 06:47:57;;;;;;;13.05;6.78;;;21.10;99.90;;;;;;5016085;28;20041;-70
2023/08/24 06:50:22;;;;;;;8.23;5.97;;;20.90;99.90;;;;;;5027574;28;20044;-70
2023/08/24 06:52:48;;;;;;;11.48;7.03;;;21.00;99.90;;;;;;5053814;28;20094;-70
2023/08/24 06:55:14;;;;;;;9.48;6.47;;;21.30;99.90;;;;;;5053714;28;20182;-70
2023/08/24 06:57:40;;;;;;;12.05;7.35;;;21.40;99.90;;;;;;5053427;28;20033;-70
2023/08/24 07:00:08;;;;;;;10.65;5.78;;;21.50;99.90;;;;;;5053307;28;20041;-70
2023/08/24 07:02:34;;;;;;;10.45;5.72;;;21.80;99.90;;;;;;5053439;28;20072;-70
2023/08/24 07:05:08;;;;;;;12.40;5.50;;;22.00;99.90;;;;;;5053616;28;20041;-70
2023/08/24 07:07:34;;;;;;;7.00;5.30;;;21.90;99.90;;;;;;5035694;28;20045;-70
2023/08/24 07:09:59;;;;;;;9.75;6.07;;;21.90;99.90;;;;;;5035574;28;20033;-70
2023/08/24 07:12:25;;;;;;;7.90;5.75;;;22.00;99.90;;;;;;5052376;28;20542;-70
2023/08/24 07:14:51;;;;;;;10.20;6.00;;;22.00;99.90;;;;;;5035419;28;20040;-70
2023/08/24 07:17:16;;;;;;;10.02;6.18;;;22.00;99.90;;;;;;5053409;28;20404;-73
2023/08/24 07:19:42;;;;;;;8.57;6.20;;;22.10;99.90;;;;;;5035487;28;20045;-72
2023/08/24 07:22:08;;;;;;;14.80;6.20;;;22.10;99.90;;;;;;5053308;28;20072;-70
2023/08/24 07:24:35;;;;;;;11.13;6.38;;;22.20;99.90;;;;;;5053341;28;20037;-70
2023/08/24 07:27:02;;;;;;;14.02;6.15;;;22.30;99.90;;;;;;5035254;28;20419;-71
2023/08/24 07:29:34;;;;;;;10.57;6.40;;;22.30;99.90;;;;;;5035324;28;20048;-71
2023/08/24 07:32:00;;;;;;;9.40;6.50;;;22.40;99.90;;;;;;5018911;28;20492;-71
2023/08/24 07:34:26;;;;;;;9.32;6.43;;;22.60;99.90;;;;;;5053276;28;20029;-72
2023/08/24 07:36:51;;;;;;;11.25;7.00;;;22.70;99.90;;;;;;5052764;28;20048;-72
2023/08/24 07:39:17;;;;;;;10.77;6.05;;;22.50;99.90;;;;;;5034866;28;20552;-71
2023/08/24 07:41:42;;;;;;;9.88;6.63;;;22.80;99.90;;;;;;5052382;28;20119;-71
2023/08/24 07:44:08;;;;;;;9.95;7.22;;;22.90;99.90;;;;;;5052624;28;20068;-71
2023/08/24 07:46:34;;;;;;;11.40;6.00;;;22.80;99.90;;;;;;5034888;28;20041;-71
2023/08/24 07:48:59;;;;;;;9.05;7.00;;;23.00;99.90;;;;;;5052228;28;20045;-71
2023/08/24 07:51:25;;;;;;;10.63;6.18;;;23.00;99.90;;;;;;5015014;28;20382;-71
2023/08/24 07:53:52;;;;;;;12.02;6.32;;;23.10;99.90;;;;;;5032733;28;20033;-71
2023/08/24 07:56:18;;;;;;;13.27;6.88;;;23.20;99.90;;;;;;5014764;28;20056;-71
2023/08/24 07:58:44;;;;;;;9.02;6.10;;;23.30;99.90;;;;;;5014800;28;20128;-73
2023/08/24 08:01:11;;;;;;;6.95;5.05;;;23.10;99.90;;;;;;5014784;28;20042;-74
2023/08/24 08:03:37;;;;;;;8.75;5.03;;;23.40;99.90;;;;;;5014808;28;20059;-76
2023/08/24 08:06:03;;;;;;;10.50;4.95;;;23.50;99.90;;;;;;5014504;28;20076;-72
2023/08/24 08:08:28;;;;;;;11.70;4.35;;;23.60;99.90;;;;;;5032147;28;20044;-72
2023/08/24 08:11:02;;;;;;;8.85;4.47;;;23.60;99.90;;;;;;5032076;28;20045;-71
2023/08/24 08:13:28;;;;;;;8.02;4.53;;;23.70;99.90;;;;;;5032155;28;20129;-71
2023/08/24 08:15:54;;;;;;;9.73;4.82;;;23.70;99.90;;;;;;5014449;28;20052;-72
2023/08/24 08:18:20;;;;;;;6.95;4.75;;;23.90;99.90;;;;;;5031841;28;20033;-71
2023/08/24 08:20:45;;;;;;;10.60;4.78;;;23.90;99.90;;;;;;5014264;28;20053;-71
2023/08/24 08:23:11;;;;;;;9.45;4.47;;;24.00;99.90;;;;;;5031802;28;20041;-71
2023/08/24 08:25:37;;;;;;;7.03;3.72;;;24.10;99.90;;;;;;5014193;28;20053;-71
2023/08/24 08:28:03;;;;;;;6.10;3.08;;;23.90;99.90;;;;;;5014375;28;20034;-71
2023/08/24 08:30:29;;;;;;;6.38;3.60;;;24.10;99.90;;;;;;5032127;28;20057;-71
2023/08/24 08:32:55;;;;;;;6.32;3.83;;;24.10;99.90;;;;;;5031829;28;20423;-69
2023/08/24 08:35:22;;;;;;;6.53;4.10;;;24.00;99.90;;;;;;5014348;28;20049;-69
2023/08/24 08:37:49;;;;;;;5.93;4.00;;;24.10;99.90;;;;;;5031777;28;20045;-69
2023/08/24 08:40:16;;;;;;;7.22;3.80;;;24.20;99.90;;;;;;5031602;28;20405;-71
2023/08/24 08:42:42;;;;;;;4.63;3.33;;;24.30;99.90;;;;;;5032017;28;20045;-72
2023/08/24 08:45:10;;;;;;;4.50;3.38;;;24.40;99.90;;;;;;5014007;28;20386;-71
2023/08/24 08:47:41;;;;;;;6.82;4.20;;;24.50;99.90;;;;;;5031485;28;20421;-72
2023/08/24 08:50:07;;;;;;;8.00;4.15;;;24.40;99.90;;;;;;5031352;28;20456;-71
2023/08/24 08:52:33;;;;;;;7.15;4.00;;;24.40;99.90;;;;;;5031682;28;20033;-71
2023/08/24 08:55:00;;;;;;;8.07;4.00;;;24.30;99.90;;;;;;5031707;28;20045;-71
2023/08/24 08:57:26;;;;;;;6.75;5.20;;;24.40;99.90;;;;;;5031763;28;20037;-71
2023/08/24 08:59:55;;;;;;;7.68;3.97;;;24.50;99.90;;;;;;5031643;28;20088;-71
2023/08/24 09:02:22;;;;;;;25.08;5.20;;;24.60;99.90;;;;;;5031764;28;20116;-71
2023/08/24 09:04:51;;;;;;;9.13;4.88;;;24.70;99.90;;;;;;5029509;28;20040;-71
2023/08/24 09:07:16;;;;;;;8.55;5.05;;;24.70;99.90;;;;;;5028143;28;20046;-72
2023/08/24 09:09:43;;;;;;;8.60;4.13;;;24.60;99.90;;;;;;5031073;28;20116;-71
2023/08/24 09:12:09;;;;;;;10.02;4.63;;;24.50;99.90;;;;;;5031468;28;20570;-72
2023/08/24 09:14:35;;;;;;;10.23;4.90;;;24.30;99.90;;;;;;5013938;28;20033;-69
2023/08/24 09:17:00;;;;;;;10.18;4.60;;;24.20;99.90;;;;;;5031371;28;20126;-69
2023/08/24 09:19:29;;;;;;;7.13;5.00;;;24.20;99.90;;;;;;5013346;28;20052;-69
2023/08/24 09:22:00;;;;;;;10.15;4.97;;;24.00;99.90;;;;;;5013677;28;20497;-69
2023/08/24 09:24:34;;;;;;;7.85;4.50;;;23.90;99.90;;;;;;5013759;28;20076;-69
2023/08/24 09:27:21;;;;;;;5.88;4.22;;;24.00;99.90;;;;;;5031276;28;20042;-69
2023/08/24 09:29:53;;;;;;;6.97;4.35;;;23.70;99.90;;;;;;5031080;28;20030;-69
2023/08/24 09:32:31;;;;;;;8.55;5.13;;;23.70;99.90;;;;;;5013644;28;20103;-69
2023/08/24 09:35:07;;;;;;;8.10;5.53;;;23.70;99.90;;;;;;5015684;28;20050;-69
2023/08/24 09:37:34;;;;;;;6.00;4.75;;;23.50;99.90;;;;;;5035093;28;20065;-69
2023/08/24 09:40:07;;;;;;;7.30;5.05;;;23.50;99.90;;;;;;5017294;28;20381;-69
2023/08/24 09:42:43;;;;;;;7.22;5.20;;;23.30;99.90;;;;;;5017646;28;20405;-69
2023/08/24 09:45:13;;;;;;;14.93;6.13;;;23.30;99.90;;;;;;5017522;28;20057;-69
2023/08/24 09:47:38;;;;;;;11.00;5.72;;;23.20;99.90;;;;;;5035073;28;20084;-69
2023/08/24 09:50:05;;;;;;;13.55;6.50;;;23.20;99.90;;;;;;5017160;28;20029;-69
2023/08/24 09:52:34;;;;;;;8.45;5.93;;;23.20;99.90;;;;;;5034947;28;20091;-69
2023/08/24 09:55:09;;;;;;;10.18;6.25;;;23.10;99.90;;;;;;5034932;28;20045;-69
2023/08/24 09:57:37;;;;;;;9.90;6.28;;;23.00;99.90;;;;;;5034594;28;20120;-69
2023/08/24 10:00:11;;;;;;;9.80;6.18;;;23.00;99.90;;;;;;5034535;28;20128;-72
2023/08/24 10:02:48;;;;;;;9.25;6.43;;;23.10;99.90;;;;;;5034684;28;20561;-71
2023/08/24 10:05:20;;;;;;;12.32;6.00;;;23.10;99.90;;;;;;5034630;28;20188;-71
2023/08/24 10:07:58;;;;;;;9.80;6.10;;;22.90;99.90;;;;;;5016810;28;20049;-71
2023/08/24 10:10:29;;;;;;;13.23;7.00;;;23.00;99.90;;;;;;5034701;28;20049;-71
2023/08/24 10:13:06;;;;;;;9.63;6.03;;;22.90;99.90;;;;;;5034680;28;20040;-71
2023/08/24 10:15:32;;;;;;;10.90;6.53;;;22.90;99.90;;;;;;5034470;28;20129;-71
2023/08/24 10:18:10;;;;;;;9.25;5.70;;;22.90;99.90;;;;;;5034158;28;20455;-71
2023/08/24 10:20:36;;;;;;;9.35;6.25;;;23.00;99.90;;;;;;5034540;28;20397;-71
2023/08/24 10:23:02;;;;;;;14.48;6.20;;;23.00;99.90;;;;;;5016615;28;20076;-71
2023/08/24 10:25:28;;;;;;;10.98;5.78;;;23.00;99.90;;;;;;5034277;28;20069;-71
2023/08/24 10:27:54;;;;;;;7.82;5.55;;;22.90;99.90;;;;;;5034143;28;20464;-71
2023/08/24 10:30:20;;;;;;;8.05;5.47;;;23.10;99.90;;;;;;5034061;28;20065;-71
2023/08/24 10:32:48;;;;;;;13.35;6.28;;;22.90;99.90;;;;;;5034030;28;20037;-71
2023/08/24 10:35:15;;;;;;;9.60;6.45;;;22.90;99.90;;;;;;5034313;28;20042;-71
2023/08/24 10:37:43;;;;;;;10.13;6.70;;;23.00;99.90;;;;;;5034216;28;20112;-70
2023/08/24 10:40:11;;;;;;;9.88;6.57;;;23.00;99.90;;;;;;5033836;28;20520;-69
2023/08/24 10:42:47;;;;;;;10.68;5.88;;;23.00;99.90;;;;;;5016489;28;20087;-70
2023/08/24 10:45:14;;;;;;;9.10;6.40;;;22.90;99.90;;;;;;5033729;28;20501;-70
2023/08/24 10:47:46;;;;;;;11.57;6.63;;;22.90;99.90;;;;;;5033994;28;20080;-69
2023/08/24 10:50:13;;;;;;;12.55;7.03;;;22.90;99.90;;;;;;5065980;22;20528;-72
2023/08/24 10:52:42;;;;;;;10.73;6.70;;;22.80;99.90;;;;;;5016267;28;20065;-72
2023/08/24 10:55:27;;;;;;;7.60;6.00;;;22.90;99.90;;;;;;5034966;28;20091;-72
2023/08/24 10:57:58;;;;;;;12.35;6.82;;;22.80;99.90;;;;;;5016212;28;20044;-72
2023/08/24 11:00:28;;;;;;;10.23;6.05;;;22.80;99.90;;;;;;5015935;28;20040;-72
2023/08/24 11:02:54;;;;;;;9.95;6.65;;;22.80;99.90;;;;;;5034185;28;20037;-72
2023/08/24 11:05:35;;;;;;;7.72;5.78;;;22.90;99.90;;;;;;5033625;28;20041;-74
2023/08/24 11:08:01;;;;;;;8.18;6.45;;;22.90;99.90;;;;;;5033455;28;20034;-74
2023/08/24 11:10:48;;;;;;;7.82;6.10;;;22.80;99.90;;;;;;5016116;28;20559;-74
2023/08/24 11:13:16;;;;;;;10.35;6.75;;;22.80;99.90;;;;;;5033792;28;20034;-74
2023/08/24 11:15:47;;;;;;;8.32;5.85;;;22.90;99.90;;;;;;5033533;28;20045;-74
2023/08/24 11:18:18;;;;;;;9.52;6.30;;;22.90;99.90;;;;;;5033378;28;20046;-72
2023/08/24 11:20:45;;;;;;;11.80;5.63;;;22.90;99.90;;;;;;5015385;28;20041;-72
2023/08/24 11:23:12;;;;;;;6.47;5.30;;;22.90;99.90;;;;;;5033225;28;20582;-71
2023/08/24 11:25:38;;;;;;;14.93;6.75;;;23.00;99.90;;;;;;5015251;28;20045;-72
2023/08/24 11:28:04;;;;;;;9.18;6.78;;;22.90;99.90;;;;;;5032828;28;20045;-72
2023/08/24 11:30:34;;;;;;;11.38;6.95;;;23.10;99.90;;;;;;4998933;28;20048;-72
2023/08/24 11:33:00;;;;;;;9.15;6.30;;;23.10;99.90;;;;;;5033107;28;20080;-72
2023/08/24 11:35:26;;;;;;;8.82;6.22;;;23.20;99.90;;;;;;5015156;28;20041;-72
2023/08/24 11:37:53;;;;;;;11.30;7.85;;;23.20;99.90;;;;;;5015334;28;20072;-72
2023/08/24 11:40:20;;;;;;;9.70;6.78;;;23.40;99.90;;;;;;5015019;28;20076;-72
2023/08/24 11:42:46;;;;;;;10.35;7.18;;;23.30;99.90;;;;;;5032833;28;20516;-72
2023/08/24 11:45:14;;;;;;;15.82;7.07;;;23.40;99.90;;;;;;5015238;28;20045;-72
2023/08/24 11:47:40;;;;;;;13.55;7.68;;;23.40;99.90;;;;;;5015053;28;20138;-72
2023/08/24 11:50:06;;;;;;;12.93;7.47;;;23.30;99.90;;;;;;5014855;28;20041;-72
2023/08/24 11:52:35;;;;;;;10.80;6.38;;;23.30;99.90;;;;;;5032663;28;20103;-72
2023/08/24 11:55:01;;;;;;;11.07;7.03;;;23.40;99.90;;;;;;5015146;28;20037;-72
2023/08/24 11:57:27;;;;;;;10.40;7.03;;;23.40;99.90;;;;;;5032078;28;20121;-72
2023/08/24 11:59:54;;;;;;;11.27;7.25;;;23.50;99.90;;;;;;5032423;28;20152;-72
2023/08/24 12:02:20;;;;;;;11.27;6.75;;;23.70;99.90;;;;;;5032511;28;20058;-72
2023/08/24 12:04:48;;;;;;;9.18;6.63;;;23.60;99.90;;;;;;5032599;28;20049;-72
2023/08/24 12:07:15;;;;;;;8.35;6.45;;;23.60;99.90;;;;;;5014574;28;20053;-72
2023/08/24 12:09:41;;;;;;;12.35;7.63;;;23.80;99.90;;;;;;5014815;28;20507;-72
2023/08/24 12:12:17;;;;;;;12.23;7.78;;;23.90;99.90;;;;;;5032553;28;20076;-72
2023/08/24 12:14:46;;;;;;;12.88;7.05;;;24.00;99.90;;;;;;5032393;28;20073;-72
2023/08/24 12:17:12;;;;;;;12.48;7.63;;;24.00;99.90;;;;;;5032255;28;20045;-72
2023/08/24 12:19:43;;;;;;;11.85;7.35;;;24.00;99.90;;;;;;5014613;28;20577;-72
2023/08/24 12:22:16;;;;;;;11.75;6.53;;;24.00;99.90;;;;;;5032325;28;20049;-72
2023/08/24 12:24:45;;;;;;;12.48;7.15;;;24.00;99.90;;;;;;5032177;28;20116;-72
2023/08/24 12:27:27;;;;;;;15.05;7.78;;;24.10;99.90;;;;;;5031885;28;20150;-72
2023/08/24 12:29:52;;;;;;;10.95;7.40;;;24.20;99.90;;;;;;5031815;28;20578;-72
2023/08/24 12:32:20;;;;;;;11.43;7.03;;;24.20;99.90;;;;;;5032104;28;20069;-72
2023/08/24 12:34:46;;;;;;;13.20;7.25;;;24.20;99.90;;;;;;5014259;28;20038;-72
2023/08/24 12:37:12;;;;;;;11.40;6.70;;;24.10;99.90;;;;;;5031856;28;20053;-72
2023/08/24 12:39:39;;;;;;;9.75;6.78;;;24.20;99.90;;;;;;5031587;28;20041;-72
2023/08/24 12:42:06;;;;;;;10.85;7.20;;;24.10;99.90;;;;;;5031781;28;20083;-72